Time;durP1;ratioP1;P1;durP2;ratioP2;P2;SDS_P1;SDS_P2;PMS_P1;PMS_P2;Temp;Humidity;BMP_temperature;BMP_pressure;BME280_temperature;BME280_humidity;BME280_pressure;Samples;Min_cycle;Max_cycle;Signal;HPM_P1;HPM_P2
2023/05/13 00:01:52;;;;;;;10.80;6.70;;;;;;;13.06;56.87;101325.62;106221;1257;65646;-64
2023/05/13 00:04:19;;;;;;;9.40;6.80;;;;;;;13.03;57.00;101325.35;106064;1263;62673;-62
2023/05/13 00:06:46;;;;;;;13.80;6.50;;;;;;;12.98;56.94;101328.02;106147;1258;73876;-62
2023/05/13 00:09:13;;;;;;;12.80;7.30;;;;;;;12.90;56.75;101327.88;106225;1254;59628;-66
2023/05/13 00:11:40;;;;;;;9.80;6.80;;;;;;;12.80;56.55;101328.48;106219;1255;59634;-62
2023/05/13 00:14:09;;;;;;;10.50;6.90;;;;;;;12.70;56.52;101328.64;106213;1261;65304;-64
2023/05/13 00:16:36;;;;;;;11.30;7.50;;;;;;;12.61;56.50;101328.80;106275;1260;62509;-63
2023/05/13 00:19:03;;;;;;;9.90;7.90;;;;;;;12.52;56.61;101329.81;106232;1260;64884;-63
2023/05/13 00:21:31;;;;;;;10.60;7.20;;;;;;;12.44;56.87;101330.70;106193;1261;59752;-62
2023/05/13 00:23:58;;;;;;;11.20;7.70;;;;;;;12.38;57.26;101328.02;106233;1261;62136;-64
2023/05/13 00:26:25;;;;;;;10.10;7.60;;;;;;;12.36;57.43;101325.12;106214;1260;67207;-62
2023/05/13 00:28:52;;;;;;;10.40;6.90;;;;;;;12.39;57.56;101327.40;106247;1260;63904;-63
2023/05/13 00:31:19;;;;;;;9.80;7.40;;;;;;;12.39;57.72;101327.39;106015;1260;66011;-63
2023/05/13 00:33:46;;;;;;;11.40;7.60;;;;;;;12.38;57.83;101327.81;106041;1263;59618;-65
2023/05/13 00:36:13;;;;;;;10.80;7.70;;;;;;;12.38;57.90;101327.64;106266;1257;59631;-64
2023/05/13 00:38:42;;;;;;;10.80;7.90;;;;;;;12.37;57.94;101330.36;106189;1255;65473;-65
2023/05/13 00:41:10;;;;;;;10.70;8.10;;;;;;;12.34;58.01;101329.56;106165;1257;64082;-68
2023/05/13 00:43:37;;;;;;;12.60;7.60;;;;;;;12.28;57.99;101332.83;106244;1257;66106;-63
2023/05/13 00:46:05;;;;;;;13.40;8.40;;;;;;;12.22;58.13;101336.35;106222;1262;59654;-62
2023/05/13 00:48:32;;;;;;;11.40;7.90;;;;;;;12.18;58.16;101335.23;106224;1257;59602;-62
2023/05/13 00:50:59;;;;;;;13.20;8.30;;;;;;;12.16;58.26;101335.23;106196;1256;65453;-64
2023/05/13 00:53:26;;;;;;;11.10;6.90;;;;;;;12.13;58.16;101333.48;106222;1258;62555;-64
2023/05/13 00:55:53;;;;;;;10.20;7.40;;;;;;;12.16;58.06;101334.71;106104;1260;65089;-64
2023/05/13 00:58:20;;;;;;;9.70;7.00;;;;;;;12.21;57.94;101336.27;106178;1257;59615;-65
2023/05/13 01:01:16;;;;;;;10.70;8.20;;;;;;;12.23;57.73;101335.08;106119;1262;59503;-65
2023/05/13 01:04:02;;;;;;;12.90;7.40;;;;;;;12.20;57.53;101331.26;106122;1262;66926;-63
2023/05/13 01:06:35;;;;;;;15.70;7.40;;;;;;;12.15;57.32;101331.10;106202;1257;62652;-62
2023/05/13 01:09:26;;;;;;;14.10;7.80;;;;;;;12.12;57.21;101333.02;106107;1257;66111;-65
2023/05/13 01:11:52;;;;;;;15.90;8.10;;;;;;;12.10;57.19;101334.61;106017;1260;59581;-64
2023/05/13 01:14:25;;;;;;;13.80;7.70;;;;;;;12.05;57.18;101336.67;106192;1257;59496;-64
2023/05/13 01:16:55;;;;;;;12.10;8.10;;;;;;;11.99;57.26;101335.70;106309;1255;66780;-62
2023/05/13 01:19:25;;;;;;;10.50;7.40;;;;;;;11.94;57.57;101335.38;106303;1257;63558;-64
2023/05/13 01:21:53;;;;;;;12.10;9.10;;;;;;;11.93;57.82;101337.55;106084;1257;64740;-62
2023/05/13 01:24:20;;;;;;;9.70;7.10;;;;;;;11.95;57.98;101336.36;105858;1265;59665;-63
2023/05/13 01:26:48;;;;;;;10.60;6.90;;;;;;;12.02;58.00;101336.41;106084;1260;59730;-63
2023/05/13 01:29:15;;;;;;;10.60;7.10;;;;;;;12.08;57.93;101334.73;105914;1258;67804;-62
2023/05/13 01:31:42;;;;;;;11.10;7.10;;;;;;;12.14;57.93;101338.54;106079;1260;63874;-64
2023/05/13 01:34:10;;;;;;;11.10;7.70;;;;;;;12.16;58.01;101337.01;105956;1261;66131;-63
2023/05/13 01:36:38;;;;;;;13.90;8.00;;;;;;;12.13;57.79;101337.41;106187;1257;59733;-63
2023/05/13 01:39:05;;;;;;;10.00;7.70;;;;;;;12.07;58.13;101336.38;106426;1260;59285;-63
2023/05/13 01:41:32;;;;;;;11.00;7.30;;;;;;;12.06;58.62;101331.50;106059;1258;65226;-64
2023/05/13 01:46:42;;;;;;;11.40;8.00;;;;;;;11.93;58.97;101331.96;104875;1294;601089;-86
2023/05/13 01:49:09;;;;;;;12.00;8.10;;;;;;;11.98;58.54;101330.30;108056;1267;57528;-84
2023/05/13 01:51:37;;;;;;;10.90;7.50;;;;;;;11.95;58.43;101330.54;108064;1267;57161;-84
2023/05/13 01:54:10;;;;;;;10.70;7.50;;;;;;;11.93;58.55;101334.23;108111;1267;64685;-83
2023/05/13 01:56:39;;;;;;;9.50;7.10;;;;;;;11.91;59.06;101333.45;108055;1267;62702;-85
2023/05/13 01:59:08;;;;;;;10.10;6.80;;;;;;;11.95;59.47;101333.53;108020;1264;174560;-84
2023/05/13 02:01:47;;;;;;;13.40;7.40;;;;;;;12.01;59.64;101330.31;108123;1263;56935;-86
2023/05/13 02:04:14;;;;;;;9.30;7.10;;;;;;;12.04;59.60;101331.15;108899;1257;57905;-85
2023/05/13 02:06:41;;;;;;;12.70;7.20;;;;;;;12.04;59.59;101333.58;108769;1258;66063;-86
2023/05/13 02:09:09;;;;;;;10.30;7.50;;;;;;;12.04;59.67;101336.77;108777;1256;62561;-86
2023/05/13 02:11:39;;;;;;;10.30;7.40;;;;;;;12.04;59.70;101338.00;108916;1257;64840;-85
2023/05/13 02:14:07;;;;;;;14.30;7.90;;;;;;;12.01;59.67;101335.92;108695;1256;57909;-85
2023/05/13 02:16:34;;;;;;;12.00;7.50;;;;;;;11.96;59.55;101338.72;108624;1253;58437;-86
2023/05/13 02:19:08;;;;;;;13.00;8.30;;;;;;;11.91;59.55;101341.52;108825;1253;65360;-86
2023/05/13 02:21:42;;;;;;;14.50;8.40;;;;;;;11.85;59.44;101340.38;108630;1255;63646;-85
2023/05/13 02:24:09;;;;;;;12.30;8.20;;;;;;;11.76;59.49;101340.45;108759;1253;65081;-85
2023/05/13 02:26:37;;;;;;;11.80;8.10;;;;;;;11.69;59.51;101341.11;108558;1254;57969;-84
2023/05/13 02:29:06;;;;;;;9.30;7.30;;;;;;;11.65;59.58;101343.66;108620;1253;62559;-83
2023/05/13 02:31:40;;;;;;;10.30;7.20;;;;;;;11.68;59.62;101343.82;108691;1252;65390;-85
2023/05/13 02:34:12;;;;;;;10.10;7.30;;;;;;;11.71;59.64;101345.89;108818;1253;62408;-85
2023/05/13 02:36:40;;;;;;;10.30;7.20;;;;;;;11.77;59.71;101351.33;108735;1254;71913;-89
2023/05/13 02:39:11;;;;;;;13.90;8.20;;;;;;;11.81;59.84;101348.20;108641;1254;58710;-87
2023/05/13 02:41:54;;;;;;;11.40;8.30;;;;;;;11.85;59.80;101347.59;108656;1253;57893;-85
2023/05/13 02:44:36;;;;;;;13.30;6.90;;;;;;;11.86;59.78;101347.46;108618;1260;66415;-85
2023/05/13 02:47:10;;;;;;;11.40;7.90;;;;;;;11.87;59.75;101347.08;108672;1253;61873;-84
2023/05/13 02:49:38;;;;;;;10.90;8.20;;;;;;;11.88;59.72;101351.75;108641;1254;66446;-84
2023/05/13 02:52:05;;;;;;;11.30;7.90;;;;;;;11.91;59.73;101355.63;108547;1254;59223;-84
2023/05/13 02:54:34;;;;;;;12.00;8.00;;;;;;;11.92;59.75;101357.14;108594;1252;57438;-84
2023/05/13 02:57:02;;;;;;;10.50;7.30;;;;;;;11.91;59.81;101358.94;108819;1253;66539;-85
2023/05/13 02:59:29;;;;;;;9.90;7.30;;;;;;;11.96;59.83;101361.26;109077;1253;63339;-84
2023/05/13 03:02:13;;;;;;;9.30;7.20;;;;;;;12.04;59.89;101361.52;109510;1254;64850;-84
2023/05/13 03:04:40;;;;;;;10.10;6.40;;;;;;;12.15;60.08;101359.57;108774;1254;58284;-84
2023/05/13 03:07:10;;;;;;;10.70;7.70;;;;;;;12.20;60.18;101362.71;108752;1257;57977;-86
2023/05/13 03:09:38;;;;;;;9.70;7.40;;;;;;;12.22;60.31;101366.11;108809;1253;65370;-84
2023/05/13 03:12:15;;;;;;;10.90;6.60;;;;;;;12.23;60.36;101371.31;108515;1253;62737;-85
2023/05/13 03:14:49;;;;;;;10.70;7.60;;;;;;;12.23;60.31;101374.81;108870;1253;65223;-83
2023/05/13 03:17:16;;;;;;;10.10;7.40;;;;;;;12.23;60.21;101379.25;108987;1253;57625;-84
2023/05/13 03:19:43;;;;;;;9.90;7.30;;;;;;;12.21;60.03;101383.73;108711;1254;57925;-84
2023/05/13 03:22:14;;;;;;;9.80;7.80;;;;;;;12.19;59.97;101389.16;108746;1253;65575;-84
2023/05/13 03:24:42;;;;;;;9.70;7.40;;;;;;;12.21;59.97;101393.11;108611;1253;63635;-85
2023/05/13 03:27:12;;;;;;;11.80;7.80;;;;;;;12.21;59.92;101391.30;108836;1253;65972;-85
2023/05/13 03:29:53;;;;;;;10.30;7.70;;;;;;;12.27;59.76;101388.66;108781;1253;57878;-85
2023/05/13 03:32:29;;;;;;;9.00;7.00;;;;;;;12.36;59.77;101393.58;109069;1253;58494;-87
2023/05/13 03:34:59;;;;;;;13.90;8.20;;;;;;;12.49;59.81;101394.80;108165;1254;72728;-62
2023/05/13 03:37:28;;;;;;;12.30;8.40;;;;;;;12.59;59.77;101396.86;106336;1260;60757;-64
2023/05/13 03:39:56;;;;;;;10.20;7.40;;;;;;;12.66;59.59;101399.76;106328;1262;64606;-62
2023/05/13 03:42:25;;;;;;;14.60;8.30;;;;;;;12.70;59.53;101395.52;106201;1257;59775;-66
2023/05/13 03:44:55;;;;;;;10.90;7.30;;;;;;;12.75;59.49;101396.98;106333;1260;60091;-66
2023/05/13 03:47:23;;;;;;;10.60;8.00;;;;;;;12.79;59.70;101401.61;106129;1258;65259;-64
2023/05/13 03:49:51;;;;;;;12.40;8.40;;;;;;;12.82;59.82;101405.41;106133;1258;62643;-64
2023/05/13 03:52:18;;;;;;;12.00;7.90;;;;;;;12.85;59.91;101410.00;106090;1263;66285;-64
2023/05/13 03:54:46;;;;;;;11.40;7.20;;;;;;;12.91;59.96;101409.92;106154;1257;59648;-67
2023/05/13 03:57:14;;;;;;;10.50;7.40;;;;;;;13.01;59.92;101413.04;106427;1259;59292;-63
2023/05/13 03:59:41;;;;;;;11.90;6.90;;;;;;;13.12;59.91;101411.86;106246;1257;65439;-63
2023/05/13 04:02:08;;;;;;;11.30;7.10;;;;;;;13.23;59.64;101414.59;106362;1257;63727;-63
2023/05/13 04:04:35;;;;;;;10.00;5.90;;;;;;;13.32;59.46;101413.00;106212;1259;64848;-64
2023/05/13 04:07:02;;;;;;;8.20;5.50;;;;;;;13.45;58.36;101413.67;106300;1259;60205;-64
2023/05/13 04:09:29;;;;;;;7.60;5.10;;;;;;;13.56;57.19;101415.80;106167;1256;59561;-64
2023/05/13 04:11:56;;;;;;;13.20;5.80;;;;;;;13.65;56.09;101416.53;106113;1260;66708;-64
2023/05/13 04:14:23;;;;;;;8.80;5.20;;;;;;;13.72;55.01;101419.71;106159;1260;63429;-65
2023/05/13 04:16:50;;;;;;;8.90;5.60;;;;;;;13.78;54.37;101420.52;106133;1257;65341;-62
2023/05/13 04:19:17;;;;;;;9.00;5.40;;;;;;;13.83;54.07;101422.02;106162;1257;59753;-62
2023/05/13 04:21:45;;;;;;;10.30;5.00;;;;;;;13.89;53.71;101418.77;106247;1260;60278;-62
2023/05/13 04:24:12;;;;;;;9.60;5.20;;;;;;;13.92;53.30;101418.30;106113;1261;65382;-62
2023/05/13 04:26:39;;;;;;;9.90;5.40;;;;;;;13.96;52.90;101422.63;106200;1260;63859;-63
2023/05/13 04:29:06;;;;;;;7.90;4.70;;;;;;;13.99;52.58;101422.24;105974;1257;66120;-62
2023/05/13 04:31:33;;;;;;;7.70;4.30;;;;;;;14.03;52.24;101427.25;106171;1260;59673;-62
2023/05/13 04:34:00;;;;;;;9.90;5.00;;;;;;;14.05;51.88;101423.86;106292;1260;59743;-63
2023/05/13 04:36:27;;;;;;;8.00;5.50;;;;;;;14.08;51.82;101423.06;108443;1256;66363;-62
2023/05/13 04:38:55;;;;;;;6.30;4.50;;;;;;;14.13;51.71;101426.04;108900;1257;62905;-63
2023/05/13 04:41:22;;;;;;;6.80;4.50;;;;;;;14.18;51.60;101425.11;108865;1257;66130;-63
2023/05/13 04:43:49;;;;;;;7.70;4.80;;;;;;;14.24;51.23;101425.73;108807;1254;57661;-63
2023/05/13 04:46:16;;;;;;;8.60;4.90;;;;;;;14.31;51.12;101426.96;108774;1255;57639;-63
2023/05/13 04:48:47;;;;;;;8.00;5.10;;;;;;;14.39;50.93;101429.14;109003;1254;66472;-63
2023/05/13 04:51:15;;;;;;;8.50;4.40;;;;;;;14.46;50.44;101429.49;108827;1257;64301;-64
2023/05/13 04:53:42;;;;;;;8.70;4.70;;;;;;;14.51;50.28;101431.39;108250;1257;65148;-63
2023/05/13 04:56:09;;;;;;;9.00;4.80;;;;;;;14.57;50.06;101431.45;105977;1257;59784;-63
2023/05/13 04:58:36;;;;;;;7.30;4.30;;;;;;;14.62;49.73;101428.22;106178;1257;59535;-63
2023/05/13 05:01:03;;;;;;;6.40;4.30;;;;;;;14.67;49.50;101428.35;106043;1261;65454;-63
2023/05/13 05:03:31;;;;;;;9.70;4.40;;;;;;;14.71;49.45;101425.91;106002;1260;63845;-65
2023/05/13 05:05:58;;;;;;;7.70;4.30;;;;;;;14.77;49.32;101430.60;106179;1258;65012;-63
2023/05/13 05:08:27;;;;;;;8.50;4.70;;;;;;;14.83;49.48;101435.05;106095;1257;60338;-63
2023/05/13 05:11:22;;;;;;;7.90;4.60;;;;;;;14.87;49.29;101434.66;106256;1260;59573;-63
2023/05/13 05:13:53;;;;;;;7.60;4.30;;;;;;;14.93;49.41;101435.77;106170;1257;66368;-63
2023/05/13 05:16:26;;;;;;;7.30;4.80;;;;;;;14.99;49.35;101433.90;105687;1261;64032;-63
2023/05/13 05:18:53;;;;;;;8.00;4.70;;;;;;;15.05;49.18;101434.64;105993;1262;65913;-64
2023/05/13 05:21:21;;;;;;;11.70;4.80;;;;;;;15.13;49.28;101432.45;106165;1260;59577;-64
2023/05/13 05:23:49;;;;;;;7.30;3.80;;;;;;;15.20;49.10;101430.05;106058;1257;59733;-64
2023/05/13 05:26:17;;;;;;;8.10;4.00;;;;;;;15.28;48.71;101432.70;106271;1257;66461;-65
2023/05/13 05:28:44;;;;;;;8.80;3.60;;;;;;;15.36;48.16;101435.06;106126;1257;72084;-64
2023/05/13 05:31:11;;;;;;;6.00;3.90;;;;;;;15.44;47.68;101437.05;106053;1257;65395;-64
2023/05/13 05:33:39;;;;;;;7.10;4.10;;;;;;;15.52;47.26;101434.81;108651;1258;57646;-64
2023/05/13 05:36:06;;;;;;;5.70;2.90;;;;;;;15.60;46.80;101438.93;108837;1257;58911;-65
2023/05/13 05:38:34;;;;;;;7.80;3.90;;;;;;;15.68;46.22;101439.09;108802;1257;67237;-66
2023/05/13 05:41:01;;;;;;;8.70;3.50;;;;;;;15.79;45.95;101437.30;108848;1257;64143;-66
2023/05/13 05:43:29;;;;;;;5.90;3.00;;;;;;;15.89;45.84;101437.34;108737;1263;65057;-64
2023/05/13 05:45:56;;;;;;;9.60;5.10;;;;;;;15.99;45.44;101432.83;108799;1257;59406;-61
2023/05/13 05:48:24;;;;;;;10.70;4.90;;;;;;;16.10;45.12;101436.23;108865;1256;59600;-65
2023/05/13 05:50:51;;;;;;;11.80;4.70;;;;;;;16.22;45.25;101439.13;108784;1256;66406;-68
2023/05/13 05:53:25;;;;;;;6.80;3.50;;;;;;;16.35;45.34;101437.09;108724;1257;63703;-65
2023/05/13 05:55:52;;;;;;;5.90;3.60;;;;;;;16.48;45.06;101435.98;108799;1256;65027;-65
2023/05/13 05:58:20;;;;;;;11.50;3.70;;;;;;;16.60;44.91;101433.90;108845;1257;58718;-65
2023/05/13 06:00:47;;;;;;;10.20;4.60;;;;;;;16.72;44.76;101430.87;108797;1255;59795;-64
2023/05/13 06:03:14;;;;;;;8.60;3.40;;;;;;;16.84;44.20;101428.88;108819;1257;66894;-65
2023/05/13 06:05:41;;;;;;;8.30;3.90;;;;;;;16.96;44.15;101433.17;108810;1256;63507;-65
2023/05/13 06:08:08;;;;;;;6.40;3.20;;;;;;;17.07;44.00;101435.30;108939;1256;66182;-69
2023/05/13 06:10:37;;;;;;;7.00;3.50;;;;;;;17.17;43.23;101435.47;108923;1257;58615;-67
2023/05/13 06:13:04;;;;;;;8.20;4.30;;;;;;;17.25;43.31;101437.77;108784;1257;59209;-68
2023/05/13 06:17:08;;;;;;;7.50;3.60;;;;;;;17.31;43.74;101438.31;103295;1298;602187;-65
2023/05/13 06:30:36;;;;;;;6.40;3.70;;;;;;;17.83;42.96;101434.58;102656;1286;604874;-59
2023/05/13 06:33:04;;;;;;;6.90;3.50;;;;;;;18.37;42.19;101434.80;104154;1272;98797;-60
2023/05/13 06:35:31;;;;;;;6.80;3.10;;;;;;;18.44;42.31;101434.45;108327;1266;57676;-60
2023/05/13 06:37:59;;;;;;;6.10;3.00;;;;;;;18.49;41.95;101436.13;105932;1267;64382;-60
2023/05/13 06:40:27;;;;;;;6.20;3.10;;;;;;;18.53;41.71;101440.14;105555;1269;63115;-60
2023/05/13 06:42:54;;;;;;;6.80;3.00;;;;;;;18.58;41.48;101441.98;105438;1267;66148;-61
2023/05/13 06:45:27;;;;;;;7.50;3.30;;;;;;;18.64;41.58;101441.52;105568;1271;59314;-61
2023/05/13 06:47:55;;;;;;;7.60;3.00;;;;;;;18.72;41.59;101444.34;105675;1267;59245;-62
2023/05/13 06:50:22;;;;;;;6.40;3.20;;;;;;;18.80;41.31;101441.31;105475;1267;65917;-61
2023/05/13 06:52:49;;;;;;;7.70;2.90;;;;;;;18.88;41.10;101438.75;105113;1260;63838;-58
2023/05/13 06:55:17;;;;;;;7.30;2.90;;;;;;;18.95;40.68;101438.23;104632;1260;66154;-58
2023/05/13 06:57:45;;;;;;;6.20;2.80;;;;;;;19.02;40.62;101437.15;105521;1261;59755;-58
2023/05/13 07:00:14;;;;;;;7.40;3.10;;;;;;;19.11;40.20;101435.95;105621;1258;60932;-56
2023/05/13 07:02:41;;;;;;;5.00;3.20;;;;;;;19.17;39.58;101434.10;104523;1258;65332;-58
2023/05/13 07:05:08;;;;;;;5.30;2.70;;;;;;;19.22;39.37;101432.92;104541;1261;63829;-58
2023/05/13 07:07:37;;;;;;;5.80;2.40;;;;;;;19.27;39.30;101431.89;104562;1263;64928;-58
2023/05/13 07:10:04;;;;;;;4.50;2.30;;;;;;;19.32;39.27;101433.80;104607;1263;61033;-58
2023/05/13 07:12:31;;;;;;;6.40;2.60;;;;;;;19.40;38.98;101434.80;105238;1260;59762;-55
2023/05/13 07:14:58;;;;;;;6.90;2.60;;;;;;;19.45;38.05;101429.86;106225;1260;66513;-57
2023/05/13 07:17:25;;;;;;;5.60;2.10;;;;;;;19.47;37.90;101428.61;106143;1259;62490;-58
2023/05/13 07:19:53;;;;;;;6.70;2.40;;;;;;;19.52;38.03;101428.27;104665;1261;66036;-57
2023/05/13 07:22:19;;;;;;;6.50;2.30;;;;;;;19.57;37.89;101427.71;106979;1259;59634;-57
2023/05/13 07:24:46;;;;;;;4.60;2.10;;;;;;;19.63;37.43;101423.02;104565;1257;60098;-57
2023/05/13 07:27:13;;;;;;;7.90;2.00;;;;;;;19.71;36.86;101428.08;106323;1260;65925;-53
2023/05/13 07:29:40;;;;;;;6.20;2.10;;;;;;;19.79;36.18;101426.61;104645;1262;62529;-61
2023/05/13 07:32:07;;;;;;;4.10;1.80;;;;;;;19.86;36.04;101427.98;104619;1259;66363;-63
2023/05/13 07:34:34;;;;;;;5.70;1.60;;;;;;;19.94;36.14;101426.70;106347;1255;59651;-62
2023/05/13 07:37:03;;;;;;;6.20;1.80;;;;;;;20.02;36.00;101423.59;104901;1259;59627;-58
2023/05/13 07:39:30;;;;;;;3.90;1.60;;;;;;;20.10;35.85;101426.09;104902;1259;66540;-58
2023/05/13 07:41:57;;;;;;;4.60;1.60;;;;;;;20.18;35.41;101420.29;105400;1254;63876;-64
2023/05/13 07:44:24;;;;;;;8.40;1.80;;;;;;;20.26;34.62;101415.39;106370;1259;65071;-64
2023/05/13 07:46:52;;;;;;;5.20;2.00;;;;;;;20.33;34.42;101417.13;106308;1259;59672;-64
2023/05/13 07:49:19;;;;;;;4.40;1.90;;;;;;;20.39;34.38;101415.61;106312;1254;59764;-62
2023/05/13 07:51:46;;;;;;;4.70;1.70;;;;;;;20.45;33.99;101414.38;106143;1254;65138;-61
2023/05/13 07:54:13;;;;;;;3.70;1.50;;;;;;;20.50;33.48;101413.29;106332;1257;63998;-62
2023/05/13 07:56:42;;;;;;;3.90;1.30;;;;;;;20.55;31.99;101413.33;106131;1257;66292;-62
2023/05/13 07:59:09;;;;;;;4.10;1.60;;;;;;;20.57;31.37;101417.55;106114;1255;59691;-58
2023/05/13 08:01:36;;;;;;;5.40;1.70;;;;;;;20.59;31.64;101418.94;105585;1259;59563;-62
2023/05/13 08:04:03;;;;;;;3.90;1.40;;;;;;;20.67;32.21;101416.80;106251;1254;66531;-61
2023/05/13 08:06:31;;;;;;;4.60;1.90;;;;;;;20.76;32.08;101414.39;106186;1253;63683;-59
2023/05/13 08:08:58;;;;;;;5.40;1.90;;;;;;;20.84;32.03;101413.39;105567;1255;66460;-59
2023/05/13 08:11:26;;;;;;;3.80;1.60;;;;;;;20.91;31.95;101410.76;106125;1254;59750;-61
2023/05/13 08:13:53;;;;;;;4.70;1.50;;;;;;;21.00;31.96;101411.84;106331;1254;59638;-61
2023/05/13 08:16:20;;;;;;;5.60;1.60;;;;;;;21.07;31.96;101412.23;106311;1254;65064;-62
2023/05/13 08:18:47;;;;;;;3.90;1.50;;;;;;;21.12;31.95;101411.61;106332;1256;62691;-62
2023/05/13 08:21:14;;;;;;;4.40;1.70;;;;;;;21.16;32.00;101411.88;106339;1254;65026;-60
2023/05/13 08:23:41;;;;;;;3.60;1.30;;;;;;;21.23;31.87;101413.78;105788;1256;59742;-62
2023/05/13 08:26:12;;;;;;;6.00;1.70;;;;;;;21.32;31.87;101412.44;106300;1259;59532;-63
2023/05/13 08:28:39;;;;;;;5.60;1.80;;;;;;;21.39;31.00;101408.42;106275;1254;64824;-63
2023/05/13 08:31:11;;;;;;;6.40;1.90;;;;;;;21.44;30.37;101406.66;107057;1256;62658;-62
2023/05/13 08:33:40;;;;;;;4.70;1.90;;;;;;;21.44;30.02;101403.59;106320;1257;66120;-64
2023/05/13 08:36:08;;;;;;;7.70;1.90;;;;;;;21.45;30.16;101401.34;106558;1256;59647;-65
2023/05/13 08:38:35;;;;;;;4.10;1.40;;;;;;;21.48;30.48;101399.75;106342;1259;59654;-66
2023/05/13 08:41:05;;;;;;;3.80;1.30;;;;;;;21.53;30.06;101392.08;106230;1259;66509;-59
2023/05/13 08:43:32;;;;;;;4.40;1.20;;;;;;;21.61;30.22;101389.84;106284;1259;63886;-63
2023/05/13 08:46:02;;;;;;;4.80;1.50;;;;;;;21.70;30.26;101387.92;106494;1254;64913;-67
2023/05/13 08:48:30;;;;;;;3.80;1.30;;;;;;;21.80;29.77;101386.13;106437;1256;59743;-66
2023/05/13 08:50:57;;;;;;;4.10;1.70;;;;;;;21.90;29.44;101386.98;106287;1254;59516;-66
2023/05/13 08:53:25;;;;;;;3.50;1.40;;;;;;;21.99;29.23;101385.16;106215;1257;66516;-67
2023/05/13 08:55:53;;;;;;;7.00;1.60;;;;;;;22.06;29.07;101381.21;106291;1254;63740;-66
2023/05/13 08:58:20;;;;;;;3.50;1.40;;;;;;;22.12;29.05;101377.27;106353;1255;65076;-66
2023/05/13 09:00:50;;;;;;;3.20;1.30;;;;;;;22.21;29.06;101378.46;106320;1259;59646;-66
2023/05/13 09:03:18;;;;;;;3.50;1.30;;;;;;;22.27;28.63;101380.25;106233;1257;59561;-66
2023/05/13 09:05:45;;;;;;;3.90;1.50;;;;;;;22.35;27.97;101378.58;106187;1256;66520;-68
2023/05/13 09:08:12;;;;;;;4.70;1.30;;;;;;;22.42;27.45;101374.61;106239;1257;63759;-67
2023/05/13 09:10:39;;;;;;;4.10;1.20;;;;;;;22.50;27.65;101374.39;106212;1256;64741;-67
2023/05/13 09:13:06;;;;;;;3.70;1.30;;;;;;;22.57;27.71;101370.77;106190;1255;59529;-68
2023/05/13 09:15:33;;;;;;;3.50;1.50;;;;;;;22.63;27.76;101371.10;106296;1254;59657;-69
2023/05/13 09:18:04;;;;;;;6.10;1.50;;;;;;;22.72;27.60;101367.75;106330;1254;65266;-69
2023/05/13 09:20:31;;;;;;;3.40;1.40;;;;;;;22.81;26.97;101360.45;106356;1259;63766;-71
2023/05/13 09:23:05;;;;;;;5.90;1.20;;;;;;;22.88;26.76;101355.89;106254;1254;66185;-69
2023/05/13 09:25:33;;;;;;;2.50;1.10;;;;;;;22.95;26.99;101353.73;106653;1257;59699;-68
2023/05/13 09:28:01;;;;;;;3.40;1.30;;;;;;;23.04;26.07;101349.41;106263;1254;59525;-71
2023/05/13 09:30:32;;;;;;;3.50;1.30;;;;;;;23.06;26.11;101345.05;106225;1259;65365;-74
2023/05/13 09:33:03;;;;;;;2.90;1.10;;;;;;;23.06;26.19;101342.54;105735;1254;62738;-67
2023/05/13 09:35:31;;;;;;;4.10;1.30;;;;;;;23.12;26.89;101337.16;106380;1257;64663;-64
2023/05/13 09:37:57;;;;;;;3.40;1.10;;;;;;;23.21;27.53;101333.75;106515;1254;61933;-68
2023/05/13 09:40:25;;;;;;;4.60;1.20;;;;;;;23.32;27.27;101331.02;106499;1254;59644;-61
2023/05/13 09:42:55;;;;;;;4.90;1.50;;;;;;;23.44;26.75;101323.91;106421;1257;65377;-64
2023/05/13 09:45:22;;;;;;;3.60;1.30;;;;;;;23.57;26.78;101321.25;106531;1259;74375;-64
2023/05/13 09:47:51;;;;;;;4.00;1.40;;;;;;;23.72;26.72;101321.08;106352;1254;66791;-64
2023/05/13 09:50:18;;;;;;;5.20;1.40;;;;;;;23.87;26.50;101317.40;106485;1254;59718;-67
2023/05/13 09:52:45;;;;;;;2.50;0.90;;;;;;;23.98;26.09;101315.96;106456;1259;59647;-65
2023/05/13 09:55:12;;;;;;;7.80;1.70;;;;;;;24.01;26.14;101317.90;106340;1258;65384;-68
2023/05/13 09:57:39;;;;;;;3.80;1.20;;;;;;;24.05;26.16;101315.34;106390;1256;62654;-67
2023/05/13 10:00:08;;;;;;;5.80;1.50;;;;;;;24.14;25.38;101308.83;106562;1254;65154;-65
2023/05/13 10:02:50;;;;;;;4.50;1.50;;;;;;;24.23;25.81;101305.86;106416;1260;59646;-60
2023/05/13 10:05:17;;;;;;;6.00;1.40;;;;;;;24.33;25.67;101305.91;105900;1259;59755;-70
2023/05/13 10:07:44;;;;;;;3.90;1.50;;;;;;;24.39;25.29;101301.21;106291;1254;66511;-66
2023/05/13 10:10:11;;;;;;;7.40;1.50;;;;;;;24.45;25.47;101299.21;106342;1257;63923;-69
2023/05/13 10:12:38;;;;;;;7.60;1.30;;;;;;;24.52;26.23;101295.96;106366;1256;64875;-66
2023/05/13 10:15:06;;;;;;;3.70;1.50;;;;;;;24.57;26.53;101294.96;106497;1254;59774;-69
2023/05/13 10:17:33;;;;;;;5.20;1.80;;;;;;;24.63;26.65;101297.80;106454;1257;59637;-63
2023/05/13 10:20:00;;;;;;;5.50;1.60;;;;;;;24.68;26.80;101296.89;105781;1257;65506;-67
2023/05/13 10:22:28;;;;;;;3.40;1.40;;;;;;;24.68;26.24;101293.48;106478;1254;63601;-66
2023/05/13 10:24:59;;;;;;;4.70;1.40;;;;;;;24.70;26.50;101294.14;106475;1259;65170;-63
2023/05/13 10:27:28;;;;;;;3.00;1.00;;;;;;;24.73;26.02;101291.46;106486;1259;59640;-65
2023/05/13 10:29:56;;;;;;;3.20;1.20;;;;;;;24.74;26.34;101291.96;108020;1254;59787;-67
2023/05/13 10:32:24;;;;;;;4.90;1.90;;;;;;;24.81;26.11;101292.39;106100;1254;66592;-64
2023/05/13 10:35:26;;;;;;;4.00;1.50;;;;;;;24.89;25.94;101289.39;105093;1257;63411;-63
2023/05/13 10:38:02;;;;;;;3.70;1.50;;;;;;;24.99;26.04;101283.42;106509;1257;66279;-68
2023/05/13 10:40:58;;;;;;;4.40;1.50;;;;;;;25.00;25.00;101282.81;107252;1254;60475;-70
2023/05/13 10:43:28;;;;;;;4.10;1.70;;;;;;;24.92;24.86;101281.46;106249;1254;61448;-70
2023/05/13 10:46:00;;;;;;;4.30;1.20;;;;;;;24.91;25.45;101280.54;106311;1259;67479;-70
2023/05/13 10:48:46;;;;;;;5.50;1.60;;;;;;;24.93;25.02;101282.05;106242;1254;63804;-67
2023/05/13 10:51:14;;;;;;;4.00;1.40;;;;;;;25.03;24.76;101279.02;106205;1257;64676;-70
2023/05/13 10:53:48;;;;;;;6.40;1.90;;;;;;;25.11;24.50;101279.61;107044;1256;60414;-71
2023/05/13 10:56:23;;;;;;;4.60;1.50;;;;;;;25.18;24.87;101277.95;106975;1254;60516;-72
2023/05/13 10:58:58;;;;;;;4.40;1.60;;;;;;;25.22;24.54;101278.27;106262;1254;67086;-69
2023/05/13 11:01:28;;;;;;;4.20;1.30;;;;;;;25.24;24.13;101274.66;106445;1257;64040;-71
2023/05/13 11:04:02;;;;;;;3.10;1.20;;;;;;;25.20;23.93;101273.04;107389;1256;66223;-70
2023/05/13 11:06:34;;;;;;;5.60;1.50;;;;;;;25.14;25.01;101266.66;106430;1257;60575;-69
2023/05/13 11:09:04;;;;;;;3.90;1.30;;;;;;;25.11;24.65;101267.52;106304;1254;59362;-72
2023/05/13 11:11:32;;;;;;;3.90;1.60;;;;;;;25.18;25.03;101267.92;106252;1261;67606;-71
2023/05/13 11:14:19;;;;;;;4.70;1.40;;;;;;;25.26;25.74;101266.95;106744;1257;62424;-70
2023/05/13 11:16:59;;;;;;;4.50;1.50;;;;;;;25.37;25.78;101265.27;106282;1257;65254;-71
2023/05/13 11:19:33;;;;;;;3.20;1.30;;;;;;;25.47;25.08;101265.95;106266;1254;60467;-71
2023/05/13 11:22:15;;;;;;;4.40;1.20;;;;;;;25.55;24.34;101265.13;107213;1259;60456;-70
2023/05/13 11:25:07;;;;;;;5.40;1.40;;;;;;;25.65;23.69;101259.69;106670;1257;67321;-68
2023/05/13 11:27:41;;;;;;;4.70;1.50;;;;;;;25.75;22.90;101259.44;106299;1254;63766;-66
2023/05/13 11:30:40;;;;;;;3.50;1.30;;;;;;;25.78;22.59;101256.88;106424;1254;65084;-67
2023/05/13 11:33:11;;;;;;;5.00;1.30;;;;;;;25.80;22.71;101255.06;106087;1255;60585;-65
2023/05/13 11:35:38;;;;;;;3.10;1.30;;;;;;;25.84;22.47;101254.85;106393;1254;60925;-73
2023/05/13 11:38:05;;;;;;;3.50;1.20;;;;;;;25.89;22.34;101250.30;106170;1254;67696;-64
2023/05/13 11:40:33;;;;;;;3.20;1.30;;;;;;;25.92;21.95;101249.16;106405;1259;64658;-73